sensor_id;sensor_type;location;lat;lon;timestamp;P1;durP1;ratioP1;P2;durP2;ratioP2
45476;SDS011;31958;51.756;-2.556;2023-03-26T00:01:30;17.70;;;2.75;;
45476;SDS011;31958;51.756;-2.556;2023-03-26T00:04:00;24.67;;;3.10;;
45476;SDS011;31958;51.756;-2.556;2023-03-26T00:06:28;23.92;;;2.88;;
45476;SDS011;31958;51.756;-2.556;2023-03-26T00:08:55;15.77;;;3.20;;
45476;SDS011;31958;51.756;-2.556;2023-03-26T00:11:22;20.58;;;3.00;;
45476;SDS011;31958;51.756;-2.556;2023-03-26T00:13:48;23.65;;;3.38;;
45476;SDS011;31958;51.756;-2.556;2023-03-26T00:16:16;18.52;;;2.22;;
45476;SDS011;31958;51.756;-2.556;2023-03-26T00:18:43;21.67;;;2.50;;
45476;SDS011;31958;51.756;-2.556;2023-03-26T00:21:13;21.33;;;2.92;;
45476;SDS011;31958;51.756;-2.556;2023-03-26T00:23:40;16.67;;;3.35;;
45476;SDS011;31958;51.756;-2.556;2023-03-26T00:26:06;21.05;;;2.80;;
45476;SDS011;31958;51.756;-2.556;2023-03-26T00:28:39;21.05;;;3.10;;
45476;SDS011;31958;51.756;-2.556;2023-03-26T00:31:06;19.75;;;3.40;;
45476;SDS011;31958;51.756;-2.556;2023-03-26T00:33:36;21.17;;;3.15;;
45476;SDS011;31958;51.756;-2.556;2023-03-26T00:36:06;16.77;;;2.70;;
45476;SDS011;31958;51.756;-2.556;2023-03-26T00:41:04;26.85;;;3.22;;
45476;SDS011;31958;51.756;-2.556;2023-03-26T00:43:32;22.52;;;2.92;;
45476;SDS011;31958;51.756;-2.556;2023-03-26T00:45:59;17.30;;;3.17;;
45476;SDS011;31958;51.756;-2.556;2023-03-26T00:48:26;19.90;;;2.42;;
45476;SDS011;31958;51.756;-2.556;2023-03-26T00:50:53;16.08;;;3.05;;
45476;SDS011;31958;51.756;-2.556;2023-03-26T00:53:20;20.95;;;2.35;;
45476;SDS011;31958;51.756;-2.556;2023-03-26T00:55:46;15.52;;;1.77;;
45476;SDS011;31958;51.756;-2.556;2023-03-26T00:58:12;16.52;;;2.25;;
45476;SDS011;31958;51.756;-2.556;2023-03-26T01:00:41;23.20;;;2.92;;
45476;SDS011;31958;51.756;-2.556;2023-03-26T01:03:16;14.80;;;2.30;;
45476;SDS011;31958;51.756;-2.556;2023-03-26T01:05:44;21.73;;;2.10;;
45476;SDS011;31958;51.756;-2.556;2023-03-26T01:10:42;16.02;;;2.33;;
45476;SDS011;31958;51.756;-2.556;2023-03-26T01:13:15;9.02;;;2.47;;
45476;SDS011;31958;51.756;-2.556;2023-03-26T01:15:41;8.40;;;1.80;;
45476;SDS011;31958;51.756;-2.556;2023-03-26T01:18:07;7.50;;;1.10;;
45476;SDS011;31958;51.756;-2.556;2023-03-26T01:20:34;7.47;;;1.77;;
45476;SDS011;31958;51.756;-2.556;2023-03-26T01:23:03;7.97;;;1.63;;
45476;SDS011;31958;51.756;-2.556;2023-03-26T01:25:31;4.22;;;0.68;;
45476;SDS011;31958;51.756;-2.556;2023-03-26T01:28:02;3.63;;;0.70;;
45476;SDS011;31958;51.756;-2.556;2023-03-26T01:36:21;4.88;;;0.57;;
45476;SDS011;31958;51.756;-2.556;2023-03-26T01:41:46;7.20;;;0.98;;
45476;SDS011;31958;51.756;-2.556;2023-03-26T01:44:16;6.28;;;0.52;;
45476;SDS011;31958;51.756;-2.556;2023-03-26T01:46:42;2.83;;;0.40;;
45476;SDS011;31958;51.756;-2.556;2023-03-26T01:49:08;2.45;;;0.60;;
45476;SDS011;31958;51.756;-2.556;2023-03-26T01:51:38;2.55;;;0.50;;
45476;SDS011;31958;51.756;-2.556;2023-03-26T01:54:05;1.08;;;0.57;;
45476;SDS011;31958;51.756;-2.556;2023-03-26T01:59:43;3.70;;;0.98;;
45476;SDS011;31958;51.756;-2.556;2023-03-26T02:02:13;4.13;;;1.05;;
45476;SDS011;31958;51.756;-2.556;2023-03-26T02:05:03;4.43;;;1.20;;
45476;SDS011;31958;51.756;-2.556;2023-03-26T02:07:36;4.85;;;0.73;;
45476;SDS011;31958;51.756;-2.556;2023-03-26T02:10:07;2.80;;;0.77;;
45476;SDS011;31958;51.756;-2.556;2023-03-26T02:12:37;1.13;;;0.50;;
45476;SDS011;31958;51.756;-2.556;2023-03-26T02:15:04;1.75;;;0.80;;
45476;SDS011;31958;51.756;-2.556;2023-03-26T02:17:30;1.55;;;0.63;;
45476;SDS011;31958;51.756;-2.556;2023-03-26T02:19:57;0.93;;;0.55;;
45476;SDS011;31958;51.756;-2.556;2023-03-26T02:22:22;4.75;;;0.80;;
45476;SDS011;31958;51.756;-2.556;2023-03-26T02:24:54;9.45;;;1.02;;
45476;SDS011;31958;51.756;-2.556;2023-03-26T02:27:19;4.32;;;0.90;;
45476;SDS011;31958;51.756;-2.556;2023-03-26T02:29:45;11.18;;;1.17;;
45476;SDS011;31958;51.756;-2.556;2023-03-26T02:32:11;1.80;;;0.77;;
45476;SDS011;31958;51.756;-2.556;2023-03-26T02:34:40;7.80;;;1.08;;
45476;SDS011;31958;51.756;-2.556;2023-03-26T02:37:06;11.68;;;1.10;;
45476;SDS011;31958;51.756;-2.556;2023-03-26T02:39:32;7.20;;;1.27;;
45476;SDS011;31958;51.756;-2.556;2023-03-26T02:41:58;2.72;;;0.80;;
45476;SDS011;31958;51.756;-2.556;2023-03-26T02:44:23;2.42;;;0.75;;
45476;SDS011;31958;51.756;-2.556;2023-03-26T02:46:49;6.43;;;0.90;;
45476;SDS011;31958;51.756;-2.556;2023-03-26T02:49:14;3.90;;;0.70;;
45476;SDS011;31958;51.756;-2.556;2023-03-26T02:51:40;1.35;;;0.57;;
45476;SDS011;31958;51.756;-2.556;2023-03-26T02:54:05;1.58;;;0.60;;
45476;SDS011;31958;51.756;-2.556;2023-03-26T02:56:31;2.50;;;0.70;;
45476;SDS011;31958;51.756;-2.556;2023-03-26T02:58:56;0.77;;;0.45;;
45476;SDS011;31958;51.756;-2.556;2023-03-26T03:01:22;2.30;;;0.73;;
45476;SDS011;31958;51.756;-2.556;2023-03-26T03:03:47;0.50;;;0.40;;
45476;SDS011;31958;51.756;-2.556;2023-03-26T03:06:14;2.75;;;0.52;;
45476;SDS011;31958;51.756;-2.556;2023-03-26T03:08:43;0.95;;;0.50;;
45476;SDS011;31958;51.756;-2.556;2023-03-26T03:11:16;1.30;;;0.43;;
45476;SDS011;31958;51.756;-2.556;2023-03-26T03:13:42;6.43;;;0.90;;
45476;SDS011;31958;51.756;-2.556;2023-03-26T03:16:09;2.00;;;0.40;;
45476;SDS011;31958;51.756;-2.556;2023-03-26T03:18:35;0.70;;;0.40;;
45476;SDS011;31958;51.756;-2.556;2023-03-26T03:21:01;1.55;;;0.45;;
45476;SDS011;31958;51.756;-2.556;2023-03-26T03:23:27;5.82;;;0.68;;
45476;SDS011;31958;51.756;-2.556;2023-03-26T03:25:53;0.77;;;0.38;;
45476;SDS011;31958;51.756;-2.556;2023-03-26T03:28:21;1.75;;;0.60;;
45476;SDS011;31958;51.756;-2.556;2023-03-26T03:30:47;1.60;;;0.43;;
45476;SDS011;31958;51.756;-2.556;2023-03-26T03:33:16;3.42;;;0.70;;
45476;SDS011;31958;51.756;-2.556;2023-03-26T03:35:44;0.73;;;0.40;;
45476;SDS011;31958;51.756;-2.556;2023-03-26T03:38:10;2.03;;;0.40;;
45476;SDS011;31958;51.756;-2.556;2023-03-26T03:40:36;2.28;;;0.90;;
45476;SDS011;31958;51.756;-2.556;2023-03-26T03:43:01;2.53;;;0.50;;
45476;SDS011;31958;51.756;-2.556;2023-03-26T03:45:27;2.33;;;0.60;;
45476;SDS011;31958;51.756;-2.556;2023-03-26T03:47:52;0.40;;;0.30;;
45476;SDS011;31958;51.756;-2.556;2023-03-26T03:50:18;2.05;;;0.65;;
45476;SDS011;31958;51.756;-2.556;2023-03-26T03:52:43;5.35;;;0.70;;
45476;SDS011;31958;51.756;-2.556;2023-03-26T03:55:08;1.20;;;0.40;;
45476;SDS011;31958;51.756;-2.556;2023-03-26T03:57:34;5.55;;;0.40;;
45476;SDS011;31958;51.756;-2.556;2023-03-26T04:00:00;1.33;;;0.47;;
45476;SDS011;31958;51.756;-2.556;2023-03-26T04:02:25;2.10;;;0.55;;
45476;SDS011;31958;51.756;-2.556;2023-03-26T04:04:58;4.65;;;0.60;;
45476;SDS011;31958;51.756;-2.556;2023-03-26T04:07:24;4.97;;;0.65;;
45476;SDS011;31958;51.756;-2.556;2023-03-26T04:09:50;5.45;;;0.70;;
45476;SDS011;31958;51.756;-2.556;2023-03-26T04:12:16;3.47;;;0.60;;
45476;SDS011;31958;51.756;-2.556;2023-03-26T04:14:41;3.15;;;0.52;;
45476;SDS011;31958;51.756;-2.556;2023-03-26T04:17:07;4.97;;;0.60;;
45476;SDS011;31958;51.756;-2.556;2023-03-26T04:19:32;2.03;;;0.60;;
45476;SDS011;31958;51.756;-2.556;2023-03-26T04:21:58;5.35;;;0.60;;
45476;SDS011;31958;51.756;-2.556;2023-03-26T04:24:27;3.30;;;0.70;;
45476;SDS011;31958;51.756;-2.556;2023-03-26T04:26:54;2.05;;;0.60;;
45476;SDS011;31958;51.756;-2.556;2023-03-26T04:29:22;3.70;;;0.52;;
45476;SDS011;31958;51.756;-2.556;2023-03-26T04:31:53;2.25;;;0.47;;
45476;SDS011;31958;51.756;-2.556;2023-03-26T04:34:23;3.45;;;0.60;;
45476;SDS011;31958;51.756;-2.556;2023-03-26T04:36:49;6.10;;;0.60;;
45476;SDS011;31958;51.756;-2.556;2023-03-26T04:39:18;1.77;;;0.52;;
45476;SDS011;31958;51.756;-2.556;2023-03-26T04:41:45;0.82;;;0.45;;
45476;SDS011;31958;51.756;-2.556;2023-03-26T04:44:12;1.70;;;0.60;;
45476;SDS011;31958;51.756;-2.556;2023-03-26T04:46:38;8.52;;;0.75;;
45476;SDS011;31958;51.756;-2.556;2023-03-26T04:49:07;2.53;;;0.40;;
45476;SDS011;31958;51.756;-2.556;2023-03-26T04:51:36;2.55;;;0.60;;
45476;SDS011;31958;51.756;-2.556;2023-03-26T04:54:02;2.05;;;0.50;;
45476;SDS011;31958;51.756;-2.556;2023-03-26T04:56:41;5.88;;;0.60;;
45476;SDS011;31958;51.756;-2.556;2023-03-26T04:59:11;5.18;;;0.98;;
45476;SDS011;31958;51.756;-2.556;2023-03-26T05:01:50;2.08;;;0.45;;
45476;SDS011;31958;51.756;-2.556;2023-03-26T05:04:16;3.20;;;0.52;;
45476;SDS011;31958;51.756;-2.556;2023-03-26T05:06:42;0.68;;;0.43;;
45476;SDS011;31958;51.756;-2.556;2023-03-26T05:09:07;1.25;;;0.50;;
45476;SDS011;31958;51.756;-2.556;2023-03-26T05:11:35;1.38;;;0.60;;
45476;SDS011;31958;51.756;-2.556;2023-03-26T05:14:00;1.08;;;0.50;;
45476;SDS011;31958;51.756;-2.556;2023-03-26T05:16:26;2.65;;;0.52;;
45476;SDS011;31958;51.756;-2.556;2023-03-26T05:18:52;3.97;;;0.55;;
45476;SDS011;31958;51.756;-2.556;2023-03-26T05:21:18;2.65;;;0.50;;
45476;SDS011;31958;51.756;-2.556;2023-03-26T05:23:43;3.90;;;0.45;;
45476;SDS011;31958;51.756;-2.556;2023-03-26T05:26:09;2.50;;;0.57;;
45476;SDS011;31958;51.756;-2.556;2023-03-26T05:28:35;0.95;;;0.57;;
45476;SDS011;31958;51.756;-2.556;2023-03-26T05:31:00;3.78;;;0.60;;
45476;SDS011;31958;51.756;-2.556;2023-03-26T05:33:26;1.85;;;0.43;;
45476;SDS011;31958;51.756;-2.556;2023-03-26T05:36:09;1.73;;;0.47;;
45476;SDS011;31958;51.756;-2.556;2023-03-26T05:38:39;0.35;;;0.30;;
45476;SDS011;31958;51.756;-2.556;2023-03-26T05:41:06;0.50;;;0.40;;
45476;SDS011;31958;51.756;-2.556;2023-03-26T05:43:32;1.92;;;0.40;;
45476;SDS011;31958;51.756;-2.556;2023-03-26T05:45:58;0.25;;;0.25;;
45476;SDS011;31958;51.756;-2.556;2023-03-26T05:48:24;0.70;;;0.30;;
45476;SDS011;31958;51.756;-2.556;2023-03-26T05:50:50;1.83;;;0.60;;
45476;SDS011;31958;51.756;-2.556;2023-03-26T05:53:17;1.38;;;0.50;;
45476;SDS011;31958;51.756;-2.556;2023-03-26T05:55:43;2.13;;;0.40;;
45476;SDS011;31958;51.756;-2.556;2023-03-26T05:58:10;1.85;;;0.40;;
45476;SDS011;31958;51.756;-2.556;2023-03-26T06:00:36;0.90;;;0.50;;
45476;SDS011;31958;51.756;-2.556;2023-03-26T06:03:03;2.03;;;0.50;;
45476;SDS011;31958;51.756;-2.556;2023-03-26T06:05:33;1.88;;;0.60;;
45476;SDS011;31958;51.756;-2.556;2023-03-26T06:08:01;2.92;;;0.60;;
45476;SDS011;31958;51.756;-2.556;2023-03-26T06:10:27;1.15;;;0.60;;
45476;SDS011;31958;51.756;-2.556;2023-03-26T06:12:52;0.88;;;0.40;;
45476;SDS011;31958;51.756;-2.556;2023-03-26T06:15:18;1.30;;;0.60;;
45476;SDS011;31958;51.756;-2.556;2023-03-26T06:17:43;1.90;;;0.60;;
45476;SDS011;31958;51.756;-2.556;2023-03-26T06:20:08;3.03;;;0.63;;
45476;SDS011;31958;51.756;-2.556;2023-03-26T06:22:35;1.80;;;0.47;;
45476;SDS011;31958;51.756;-2.556;2023-03-26T06:25:00;4.80;;;0.95;;
45476;SDS011;31958;51.756;-2.556;2023-03-26T06:27:25;1.75;;;0.60;;
45476;SDS011;31958;51.756;-2.556;2023-03-26T06:29:51;1.33;;;0.50;;
45476;SDS011;31958;51.756;-2.556;2023-03-26T06:32:16;1.42;;;0.60;;
45476;SDS011;31958;51.756;-2.556;2023-03-26T06:34:42;1.73;;;0.40;;
45476;SDS011;31958;51.756;-2.556;2023-03-26T06:37:07;1.50;;;0.50;;
45476;SDS011;31958;51.756;-2.556;2023-03-26T06:39:33;0.85;;;0.40;;
45476;SDS011;31958;51.756;-2.556;2023-03-26T06:41:58;1.20;;;0.50;;
45476;SDS011;31958;51.756;-2.556;2023-03-26T06:44:24;0.77;;;0.40;;
45476;SDS011;31958;51.756;-2.556;2023-03-26T06:46:49;1.20;;;0.47;;
45476;SDS011;31958;51.756;-2.556;2023-03-26T06:49:15;0.82;;;0.40;;
45476;SDS011;31958;51.756;-2.556;2023-03-26T06:51:40;1.35;;;0.50;;
45476;SDS011;31958;51.756;-2.556;2023-03-26T06:54:06;0.35;;;0.30;;
45476;SDS011;31958;51.756;-2.556;2023-03-26T06:56:31;3.55;;;0.50;;
45476;SDS011;31958;51.756;-2.556;2023-03-26T06:58:57;1.85;;;0.30;;
45476;SDS011;31958;51.756;-2.556;2023-03-26T07:01:22;0.38;;;0.38;;
45476;SDS011;31958;51.756;-2.556;2023-03-26T07:03:47;2.05;;;0.52;;
45476;SDS011;31958;51.756;-2.556;2023-03-26T07:06:13;1.33;;;0.50;;
45476;SDS011;31958;51.756;-2.556;2023-03-26T07:08:38;0.30;;;0.30;;
45476;SDS011;31958;51.756;-2.556;2023-03-26T07:11:04;0.95;;;0.47;;
45476;SDS011;31958;51.756;-2.556;2023-03-26T07:13:30;0.32;;;0.32;;
45476;SDS011;31958;51.756;-2.556;2023-03-26T07:15:55;1.48;;;0.50;;
45476;SDS011;31958;51.756;-2.556;2023-03-26T07:18:20;1.23;;;0.60;;
45476;SDS011;31958;51.756;-2.556;2023-03-26T07:20:46;2.35;;;0.50;;
45476;SDS011;31958;51.756;-2.556;2023-03-26T07:23:12;1.65;;;0.40;;
45476;SDS011;31958;51.756;-2.556;2023-03-26T07:25:39;3.05;;;0.50;;
45476;SDS011;31958;51.756;-2.556;2023-03-26T07:33:36;1.33;;;0.70;;
45476;SDS011;31958;51.756;-2.556;2023-03-26T07:36:09;1.75;;;0.57;;
45476;SDS011;31958;51.756;-2.556;2023-03-26T07:38:57;0.82;;;0.60;;
45476;SDS011;31958;51.756;-2.556;2023-03-26T07:41:30;1.15;;;0.70;;
45476;SDS011;31958;51.756;-2.556;2023-03-26T07:46:39;2.22;;;0.80;;
45476;SDS011;31958;51.756;-2.556;2023-03-26T07:49:05;1.08;;;0.60;;
45476;SDS011;31958;51.756;-2.556;2023-03-26T07:51:34;4.30;;;0.70;;
45476;SDS011;31958;51.756;-2.556;2023-03-26T07:54:00;0.93;;;0.60;;
45476;SDS011;31958;51.756;-2.556;2023-03-26T07:56:32;2.92;;;0.60;;
45476;SDS011;31958;51.756;-2.556;2023-03-26T07:59:18;1.42;;;0.70;;
45476;SDS011;31958;51.756;-2.556;2023-03-26T08:20:44;1.17;;;0.52;;
45476;SDS011;31958;51.756;-2.556;2023-03-26T08:23:22;2.63;;;1.05;;
45476;SDS011;31958;51.756;-2.556;2023-03-26T08:28:37;2.58;;;0.77;;
45476;SDS011;31958;51.756;-2.556;2023-03-26T08:31:05;2.05;;;0.60;;
45476;SDS011;31958;51.756;-2.556;2023-03-26T08:33:32;0.73;;;0.45;;
45476;SDS011;31958;51.756;-2.556;2023-03-26T08:35:58;1.70;;;0.55;;
45476;SDS011;31958;51.756;-2.556;2023-03-26T08:38:23;1.20;;;0.70;;
45476;SDS011;31958;51.756;-2.556;2023-03-26T09:03:05;1.45;;;0.50;;
45476;SDS011;31958;51.756;-2.556;2023-03-26T09:08:12;2.05;;;0.63;;
45476;SDS011;31958;51.756;-2.556;2023-03-26T09:22:15;2.15;;;0.70;;
45476;SDS011;31958;51.756;-2.556;2023-03-26T09:33:31;2.47;;;0.80;;
45476;SDS011;31958;51.756;-2.556;2023-03-26T09:36:21;2.08;;;0.90;;
45476;SDS011;31958;51.756;-2.556;2023-03-26T10:09:01;4.95;;;1.35;;
45476;SDS011;31958;51.756;-2.556;2023-03-26T10:11:49;5.13;;;1.63;;
45476;SDS011;31958;51.756;-2.556;2023-03-26T10:14:57;3.35;;;1.40;;
45476;SDS011;31958;51.756;-2.556;2023-03-26T10:25:42;4.35;;;1.67;;
45476;SDS011;31958;51.756;-2.556;2023-03-26T10:37:03;2.75;;;1.20;;
45476;SDS011;31958;51.756;-2.556;2023-03-26T10:39:34;3.90;;;1.60;;
45476;SDS011;31958;51.756;-2.556;2023-03-26T10:42:19;4.00;;;1.17;;
45476;SDS011;31958;51.756;-2.556;2023-03-26T10:47:47;4.30;;;1.20;;
45476;SDS011;31958;51.756;-2.556;2023-03-26T10:52:45;3.47;;;1.00;;
45476;SDS011;31958;51.756;-2.556;2023-03-26T11:01:00;1.27;;;0.68;;
45476;SDS011;31958;51.756;-2.556;2023-03-26T11:19:17;3.10;;;1.30;;
45476;SDS011;31958;51.756;-2.556;2023-03-26T11:21:51;2.50;;;1.05;;
45476;SDS011;31958;51.756;-2.556;2023-03-26T11:24:34;6.95;;;1.75;;
45476;SDS011;31958;51.756;-2.556;2023-03-26T11:27:09;5.10;;;1.50;;
45476;SDS011;31958;51.756;-2.556;2023-03-26T11:32:25;5.93;;;1.50;;
45476;SDS011;31958;51.756;-2.556;2023-03-26T11:37:52;6.95;;;1.83;;
45476;SDS011;31958;51.756;-2.556;2023-03-26T11:40:28;6.75;;;1.40;;
45476;SDS011;31958;51.756;-2.556;2023-03-26T11:43:12;4.45;;;1.30;;
45476;SDS011;31958;51.756;-2.556;2023-03-26T11:45:42;5.47;;;1.20;;
45476;SDS011;31958;51.756;-2.556;2023-03-26T11:51:06;6.18;;;1.10;;
45476;SDS011;31958;51.756;-2.556;2023-03-26T11:53:34;3.83;;;1.10;;
45476;SDS011;31958;51.756;-2.556;2023-03-26T11:56:12;5.82;;;1.10;;
45476;SDS011;31958;51.756;-2.556;2023-03-26T12:01:39;0.93;;;0.60;;
45476;SDS011;31958;51.756;-2.556;2023-03-26T12:04:13;7.10;;;1.20;;
45476;SDS011;31958;51.756;-2.556;2023-03-26T12:10:00;3.47;;;1.05;;
45476;SDS011;31958;51.756;-2.556;2023-03-26T12:12:28;4.55;;;1.20;;
45476;SDS011;31958;51.756;-2.556;2023-03-26T12:14:56;6.60;;;1.23;;
45476;SDS011;31958;51.756;-2.556;2023-03-26T12:17:29;8.35;;;1.77;;
45476;SDS011;31958;51.756;-2.556;2023-03-26T12:19:58;6.88;;;1.15;;
45476;SDS011;31958;51.756;-2.556;2023-03-26T12:22:29;9.45;;;1.58;;
45476;SDS011;31958;51.756;-2.556;2023-03-26T12:25:12;9.00;;;1.77;;
45476;SDS011;31958;51.756;-2.556;2023-03-26T12:32:43;6.13;;;1.90;;
45476;SDS011;31958;51.756;-2.556;2023-03-26T12:35:13;8.80;;;1.92;;
45476;SDS011;31958;51.756;-2.556;2023-03-26T12:37:53;6.57;;;1.23;;
45476;SDS011;31958;51.756;-2.556;2023-03-26T12:40:31;5.18;;;1.40;;
45476;SDS011;31958;51.756;-2.556;2023-03-26T12:43:01;5.18;;;1.40;;
45476;SDS011;31958;51.756;-2.556;2023-03-26T12:47:55;10.13;;;2.05;;
45476;SDS011;31958;51.756;-2.556;2023-03-26T12:50:22;5.03;;;1.45;;
45476;SDS011;31958;51.756;-2.556;2023-03-26T12:53:04;11.77;;;1.88;;
45476;SDS011;31958;51.756;-2.556;2023-03-26T12:55:41;6.65;;;1.58;;
45476;SDS011;31958;51.756;-2.556;2023-03-26T13:01:02;10.68;;;1.60;;
45476;SDS011;31958;51.756;-2.556;2023-03-26T13:03:43;5.20;;;1.00;;
45476;SDS011;31958;51.756;-2.556;2023-03-26T13:08:52;9.82;;;2.13;;
45476;SDS011;31958;51.756;-2.556;2023-03-26T13:17:18;7.20;;;1.52;;
45476;SDS011;31958;51.756;-2.556;2023-03-26T13:20:04;11.93;;;1.83;;
45476;SDS011;31958;51.756;-2.556;2023-03-26T13:28:06;6.68;;;1.70;;
45476;SDS011;31958;51.756;-2.556;2023-03-26T13:33:20;6.93;;;1.60;;
45476;SDS011;31958;51.756;-2.556;2023-03-26T13:44:06;15.18;;;2.60;;
45476;SDS011;31958;51.756;-2.556;2023-03-26T13:46:35;17.77;;;3.13;;
45476;SDS011;31958;51.756;-2.556;2023-03-26T13:53:59;19.33;;;3.20;;
45476;SDS011;31958;51.756;-2.556;2023-03-26T13:56:42;9.05;;;2.08;;
45476;SDS011;31958;51.756;-2.556;2023-03-26T13:59:13;15.02;;;2.47;;
45476;SDS011;31958;51.756;-2.556;2023-03-26T14:01:46;9.63;;;2.53;;
45476;SDS011;31958;51.756;-2.556;2023-03-26T14:04:19;12.02;;;1.88;;
45476;SDS011;31958;51.756;-2.556;2023-03-26T14:07:07;9.43;;;2.20;;
45476;SDS011;31958;51.756;-2.556;2023-03-26T14:14:42;11.38;;;2.10;;
45476;SDS011;31958;51.756;-2.556;2023-03-26T14:17:20;14.13;;;2.13;;
45476;SDS011;31958;51.756;-2.556;2023-03-26T14:31:12;10.32;;;1.83;;
45476;SDS011;31958;51.756;-2.556;2023-03-26T14:42:00;10.07;;;1.77;;
45476;SDS011;31958;51.756;-2.556;2023-03-26T14:55:41;7.97;;;2.03;;
45476;SDS011;31958;51.756;-2.556;2023-03-26T15:52:03;6.85;;;1.80;;
45476;SDS011;31958;51.756;-2.556;2023-03-26T15:57:24;10.45;;;2.35;;
45476;SDS011;31958;51.756;-2.556;2023-03-26T16:18:34;6.07;;;1.70;;
45476;SDS011;31958;51.756;-2.556;2023-03-26T16:21:22;11.05;;;2.20;;
45476;SDS011;31958;51.756;-2.556;2023-03-26T16:29:25;10.18;;;2.50;;
45476;SDS011;31958;51.756;-2.556;2023-03-26T16:42:52;13.50;;;2.67;;
45476;SDS011;31958;51.756;-2.556;2023-03-26T16:45:26;12.88;;;3.05;;
45476;SDS011;31958;51.756;-2.556;2023-03-26T16:48:08;9.73;;;2.10;;
45476;SDS011;31958;51.756;-2.556;2023-03-26T16:51:02;12.93;;;2.47;;
45476;SDS011;31958;51.756;-2.556;2023-03-26T16:53:35;11.00;;;2.22;;
45476;SDS011;31958;51.756;-2.556;2023-03-26T16:59:10;11.63;;;2.10;;
45476;SDS011;31958;51.756;-2.556;2023-03-26T17:02:02;11.50;;;2.10;;
45476;SDS011;31958;51.756;-2.556;2023-03-26T17:04:37;10.82;;;2.10;;
45476;SDS011;31958;51.756;-2.556;2023-03-26T17:07:23;7.38;;;1.90;;
45476;SDS011;31958;51.756;-2.556;2023-03-26T17:10:14;11.05;;;2.00;;
45476;SDS011;31958;51.756;-2.556;2023-03-26T17:16:14;13.10;;;1.90;;
45476;SDS011;31958;51.756;-2.556;2023-03-26T17:26:01;11.27;;;1.90;;
45476;SDS011;31958;51.756;-2.556;2023-03-26T17:37:09;9.30;;;2.55;;
45476;SDS011;31958;51.756;-2.556;2023-03-26T17:42:15;14.50;;;2.45;;
45476;SDS011;31958;51.756;-2.556;2023-03-26T17:47:21;5.55;;;1.90;;
45476;SDS011;31958;51.756;-2.556;2023-03-26T17:49:53;11.75;;;2.40;;
45476;SDS011;31958;51.756;-2.556;2023-03-26T17:52:25;5.70;;;1.98;;
45476;SDS011;31958;51.756;-2.556;2023-03-26T17:54:58;6.63;;;2.30;;
45476;SDS011;31958;51.756;-2.556;2023-03-26T18:00:31;6.03;;;2.10;;
45476;SDS011;31958;51.756;-2.556;2023-03-26T18:05:50;7.50;;;2.30;;
45476;SDS011;31958;51.756;-2.556;2023-03-26T18:09:03;8.45;;;2.13;;
45476;SDS011;31958;51.756;-2.556;2023-03-26T18:12:11;12.30;;;2.33;;
45476;SDS011;31958;51.756;-2.556;2023-03-26T18:16:55;11.23;;;2.45;;
45476;SDS011;31958;51.756;-2.556;2023-03-26T18:19:24;8.50;;;3.05;;
45476;SDS011;31958;51.756;-2.556;2023-03-26T18:21:55;10.90;;;2.42;;
45476;SDS011;31958;51.756;-2.556;2023-03-26T18:24:28;7.60;;;2.42;;
45476;SDS011;31958;51.756;-2.556;2023-03-26T18:27:05;6.65;;;2.40;;
45476;SDS011;31958;51.756;-2.556;2023-03-26T18:29:35;9.52;;;2.20;;
45476;SDS011;31958;51.756;-2.556;2023-03-26T18:32:07;7.70;;;2.60;;
45476;SDS011;31958;51.756;-2.556;2023-03-26T18:34:48;7.53;;;2.45;;
45476;SDS011;31958;51.756;-2.556;2023-03-26T18:37:31;6.50;;;2.75;;
45476;SDS011;31958;51.756;-2.556;2023-03-26T18:42:47;15.43;;;2.80;;
45476;SDS011;31958;51.756;-2.556;2023-03-26T18:47:47;6.30;;;2.45;;
45476;SDS011;31958;51.756;-2.556;2023-03-26T18:50:24;9.13;;;2.70;;
45476;SDS011;31958;51.756;-2.556;2023-03-26T18:52:51;12.88;;;2.63;;
45476;SDS011;31958;51.756;-2.556;2023-03-26T18:55:17;12.75;;;2.47;;
45476;SDS011;31958;51.756;-2.556;2023-03-26T18:57:42;4.25;;;2.33;;
45476;SDS011;31958;51.756;-2.556;2023-03-26T19:00:21;6.13;;;2.45;;
45476;SDS011;31958;51.756;-2.556;2023-03-26T19:02:50;11.75;;;3.10;;
45476;SDS011;31958;51.756;-2.556;2023-03-26T19:05:31;10.10;;;2.40;;
45476;SDS011;31958;51.756;-2.556;2023-03-26T19:07:59;6.22;;;2.33;;
45476;SDS011;31958;51.756;-2.556;2023-03-26T19:10:27;11.43;;;2.50;;
45476;SDS011;31958;51.756;-2.556;2023-03-26T19:12:55;14.77;;;2.38;;
45476;SDS011;31958;51.756;-2.556;2023-03-26T19:15:22;13.88;;;2.60;;
45476;SDS011;31958;51.756;-2.556;2023-03-26T19:17:51;9.07;;;2.63;;
45476;SDS011;31958;51.756;-2.556;2023-03-26T19:20:26;8.15;;;2.40;;
45476;SDS011;31958;51.756;-2.556;2023-03-26T19:22:53;9.77;;;2.38;;
45476;SDS011;31958;51.756;-2.556;2023-03-26T19:25:21;14.93;;;2.60;;
45476;SDS011;31958;51.756;-2.556;2023-03-26T19:27:48;8.75;;;2.75;;
45476;SDS011;31958;51.756;-2.556;2023-03-26T19:30:33;9.15;;;2.58;;
45476;SDS011;31958;51.756;-2.556;2023-03-26T19:33:01;8.35;;;2.63;;
45476;SDS011;31958;51.756;-2.556;2023-03-26T19:35:34;6.60;;;2.50;;
45476;SDS011;31958;51.756;-2.556;2023-03-26T19:38:01;13.15;;;2.40;;
45476;SDS011;31958;51.756;-2.556;2023-03-26T19:40:38;10.02;;;2.20;;
45476;SDS011;31958;51.756;-2.556;2023-03-26T19:43:09;7.25;;;2.40;;
45476;SDS011;31958;51.756;-2.556;2023-03-26T19:45:36;9.80;;;3.05;;
45476;SDS011;31958;51.756;-2.556;2023-03-26T19:48:01;7.20;;;2.20;;
45476;SDS011;31958;51.756;-2.556;2023-03-26T19:50:32;6.10;;;2.40;;
45476;SDS011;31958;51.756;-2.556;2023-03-26T19:53:15;12.45;;;2.47;;
45476;SDS011;31958;51.756;-2.556;2023-03-26T19:58:17;8.60;;;2.40;;
45476;SDS011;31958;51.756;-2.556;2023-03-26T20:00:43;10.85;;;2.80;;
45476;SDS011;31958;51.756;-2.556;2023-03-26T20:03:09;5.57;;;1.92;;
45476;SDS011;31958;51.756;-2.556;2023-03-26T20:05:34;8.23;;;2.15;;
45476;SDS011;31958;51.756;-2.556;2023-03-26T20:08:01;10.38;;;2.50;;
45476;SDS011;31958;51.756;-2.556;2023-03-26T20:10:36;7.50;;;2.33;;
45476;SDS011;31958;51.756;-2.556;2023-03-26T20:13:01;12.27;;;3.30;;
45476;SDS011;31958;51.756;-2.556;2023-03-26T20:15:27;7.30;;;2.28;;
45476;SDS011;31958;51.756;-2.556;2023-03-26T20:17:55;8.35;;;2.50;;
45476;SDS011;31958;51.756;-2.556;2023-03-26T20:20:21;10.15;;;3.42;;
45476;SDS011;31958;51.756;-2.556;2023-03-26T20:22:50;12.15;;;2.20;;
45476;SDS011;31958;51.756;-2.556;2023-03-26T20:27:46;11.27;;;2.70;;
45476;SDS011;31958;51.756;-2.556;2023-03-26T20:30:14;11.50;;;2.97;;
45476;SDS011;31958;51.756;-2.556;2023-03-26T20:32:41;5.78;;;2.33;;
45476;SDS011;31958;51.756;-2.556;2023-03-26T20:35:13;23.08;;;2.88;;
45476;SDS011;31958;51.756;-2.556;2023-03-26T20:37:43;7.93;;;3.13;;
45476;SDS011;31958;51.756;-2.556;2023-03-26T20:40:09;12.60;;;3.17;;
45476;SDS011;31958;51.756;-2.556;2023-03-26T20:42:38;7.65;;;2.67;;
45476;SDS011;31958;51.756;-2.556;2023-03-26T20:45:12;12.48;;;3.58;;
45476;SDS011;31958;51.756;-2.556;2023-03-26T20:47:41;9.75;;;2.58;;
45476;SDS011;31958;51.756;-2.556;2023-03-26T20:50:09;8.30;;;2.47;;
45476;SDS011;31958;51.756;-2.556;2023-03-26T20:52:38;7.45;;;2.47;;
45476;SDS011;31958;51.756;-2.556;2023-03-26T20:55:06;7.70;;;2.95;;
45476;SDS011;31958;51.756;-2.556;2023-03-26T20:57:35;13.05;;;2.47;;
45476;SDS011;31958;51.756;-2.556;2023-03-26T21:00:01;4.85;;;2.65;;
45476;SDS011;31958;51.756;-2.556;2023-03-26T21:02:31;10.95;;;2.42;;
45476;SDS011;31958;51.756;-2.556;2023-03-26T21:04:57;8.10;;;2.60;;
45476;SDS011;31958;51.756;-2.556;2023-03-26T21:07:22;9.85;;;2.40;;
45476;SDS011;31958;51.756;-2.556;2023-03-26T21:09:48;12.80;;;2.95;;
45476;SDS011;31958;51.756;-2.556;2023-03-26T21:12:15;19.27;;;2.80;;
45476;SDS011;31958;51.756;-2.556;2023-03-26T21:14:46;8.45;;;2.55;;
45476;SDS011;31958;51.756;-2.556;2023-03-26T21:17:15;8.27;;;2.72;;
45476;SDS011;31958;51.756;-2.556;2023-03-26T21:19:42;6.95;;;2.33;;
45476;SDS011;31958;51.756;-2.556;2023-03-26T21:28:24;5.20;;;2.83;;